createdAt,value
2019-02-05T00:01:08.205Z,8.90
2019-02-05T00:03:40.366Z,8.50
2019-02-05T00:06:12.847Z,8.87
2019-02-05T00:08:45.993Z,7.67
2019-02-05T00:11:18.361Z,8.70
2019-02-05T00:13:50.807Z,8.73
2019-02-05T00:16:23.197Z,7.17
2019-02-05T00:18:56.492Z,8.20
2019-02-05T00:21:28.649Z,9.30
2019-02-05T00:24:00.927Z,8.10
2019-02-05T00:26:33.078Z,8.57
2019-02-05T00:29:05.341Z,9.03
2019-02-05T00:31:38.066Z,9.97
2019-02-05T00:34:10.116Z,9.30
2019-02-05T00:36:42.387Z,8.03
2019-02-05T00:39:14.523Z,7.83
2019-02-05T00:41:46.720Z,9.03
2019-02-05T00:44:19.112Z,9.23
2019-02-05T00:46:51.574Z,9.30
2019-02-05T00:49:23.810Z,8.63
2019-02-05T00:51:55.965Z,8.10
2019-02-05T00:54:28.471Z,9.40
2019-02-05T00:57:00.798Z,8.70
2019-02-05T00:59:33.178Z,9.70
2019-02-05T01:02:05.510Z,9.33
2019-02-05T01:04:39.038Z,8.40
2019-02-05T01:07:11.787Z,9.80
2019-02-05T01:09:44.192Z,11.80
2019-02-05T01:12:16.526Z,11.33
2019-02-05T01:14:48.846Z,10.30
2019-02-05T01:17:21.264Z,9.43
2019-02-05T01:19:53.993Z,9.83
2019-02-05T01:22:26.395Z,9.27
2019-02-05T01:24:58.698Z,9.47
2019-02-05T01:27:31.048Z,10.83
2019-02-05T01:30:03.423Z,11.10
2019-02-05T01:32:36.869Z,11.90
2019-02-05T01:35:09.383Z,9.40
2019-02-05T01:37:41.992Z,9.60
2019-02-05T01:40:18.195Z,10.07
2019-02-05T01:42:57.038Z,9.93
2019-02-05T01:45:29.166Z,9.47
2019-02-05T01:48:01.400Z,10.80
2019-02-05T01:50:33.559Z,9.60
2019-02-05T01:53:06.197Z,8.40
2019-02-05T01:55:38.328Z,10.13
2019-02-05T01:58:10.565Z,7.87
2019-02-05T02:00:42.785Z,8.70
2019-02-05T02:03:14.936Z,7.90
2019-02-05T02:05:47.235Z,7.60
2019-02-05T02:08:19.384Z,8.17
2019-02-05T02:10:53.158Z,7.43
2019-02-05T02:13:25.313Z,9.20
2019-02-05T02:15:57.639Z,9.13
2019-02-05T02:18:29.876Z,8.40
2019-02-05T02:21:02.080Z,9.90
2019-02-05T02:23:34.240Z,9.30
2019-02-05T02:26:06.385Z,8.87
2019-02-05T02:28:38.539Z,7.83
2019-02-05T02:31:10.668Z,8.73
2019-02-05T02:33:42.840Z,9.27
2019-02-05T02:36:15.072Z,7.87
2019-02-05T02:38:50.034Z,7.97
2019-02-05T02:41:22.546Z,9.00
2019-02-05T02:43:54.705Z,9.17
2019-02-05T02:46:26.840Z,9.20
2019-02-05T02:48:59.100Z,7.77
2019-02-05T02:51:31.235Z,8.33
2019-02-05T02:54:03.712Z,9.13
2019-02-05T02:56:35.846Z,9.33
2019-02-05T02:59:08.009Z,9.10
2019-02-05T03:01:40.221Z,8.37
2019-02-05T03:04:12.384Z,9.03
2019-02-05T03:06:45.950Z,8.47
2019-02-05T03:09:18.102Z,7.23
2019-02-05T03:11:50.309Z,8.93
2019-02-05T03:14:24.787Z,8.07
2019-02-05T03:16:56.998Z,8.67
2019-02-05T03:19:29.724Z,8.73
2019-02-05T03:22:01.936Z,9.50
2019-02-05T03:24:34.239Z,8.80
2019-02-05T03:27:17.178Z,9.53
2019-02-05T03:29:40.402Z,7.93
2019-02-05T03:32:13.051Z,9.77
2019-02-05T03:34:45.207Z,8.83
2019-02-05T03:37:17.365Z,8.63
2019-02-05T03:39:49.487Z,9.27
2019-02-05T03:42:21.651Z,8.80
2019-02-05T03:44:53.781Z,9.30
2019-02-05T03:47:26.011Z,8.70
2019-02-05T03:49:58.178Z,9.57
2019-02-05T03:52:40.443Z,9.43
2019-02-05T03:56:02.280Z,10.33
2019-02-05T03:59:04.116Z,9.73
2019-02-05T04:02:18.417Z,9.00
2019-02-05T04:06:03.436Z,9.10
2019-02-05T04:09:31.948Z,9.30
2019-02-05T04:12:44.956Z,9.43
2019-02-05T04:16:06.225Z,9.23
2019-02-05T04:19:13.032Z,8.60
2019-02-05T04:22:14.643Z,9.07
2019-02-05T04:25:46.706Z,9.80
2019-02-05T04:29:13.390Z,10.57
2019-02-05T04:32:39.086Z,10.23
2019-02-05T04:35:50.252Z,8.93
2019-02-05T04:39:09.998Z,8.57
2019-02-05T04:42:48.384Z,9.20
2019-02-05T04:46:02.602Z,9.17
2019-02-05T04:49:41.749Z,9.20
2019-02-05T04:53:15.199Z,8.03
2019-02-05T04:56:44.819Z,9.07
2019-02-05T04:59:48.163Z,9.33
2019-02-05T05:03:07.461Z,8.87
2019-02-05T05:06:13.090Z,8.67
2019-02-05T05:09:52.376Z,7.77
2019-02-05T05:12:25.462Z,10.20
2019-02-05T05:14:57.835Z,9.20
2019-02-05T05:17:29.990Z,9.10
2019-02-05T05:20:02.125Z,8.97
2019-02-05T05:22:34.543Z,9.43
2019-02-05T05:25:09.289Z,9.93
2019-02-05T05:27:41.558Z,9.70
2019-02-05T05:30:18.278Z,9.33
2019-02-05T05:32:50.439Z,9.70
2019-02-05T05:35:22.567Z,9.70
2019-02-05T05:37:55.103Z,9.80
2019-02-05T05:40:27.235Z,10.43
2019-02-05T05:42:59.406Z,13.47
2019-02-05T05:45:31.603Z,11.70
2019-02-05T05:48:03.837Z,11.83
2019-02-05T05:50:36.365Z,11.87
2019-02-05T05:53:08.526Z,12.67
2019-02-05T05:55:40.763Z,11.67
2019-02-05T05:58:22.321Z,9.73
2019-02-05T06:00:46.760Z,10.53
2019-02-05T06:03:19.187Z,11.37
2019-02-05T06:05:51.322Z,12.80
2019-02-05T06:08:23.486Z,11.87
2019-02-05T06:10:55.610Z,9.40
2019-02-05T06:13:27.871Z,9.30
2019-02-05T06:16:00.242Z,8.90
2019-02-05T06:18:32.397Z,9.80
2019-02-05T06:21:04.830Z,11.20
2019-02-05T06:23:36.991Z,11.83
2019-02-05T06:26:09.172Z,9.90
2019-02-05T06:28:41.750Z,10.53
2019-02-05T06:31:14.018Z,10.50
2019-02-05T06:33:46.377Z,10.10
2019-02-05T06:36:18.755Z,10.57
2019-02-05T06:38:50.919Z,9.93
2019-02-05T06:41:24.662Z,11.10
2019-02-05T06:43:58.284Z,8.70
2019-02-05T06:46:30.473Z,8.83
2019-02-05T06:49:02.649Z,10.07
2019-02-05T06:51:34.849Z,10.27
2019-02-05T06:54:07.442Z,10.77
2019-02-05T06:56:42.336Z,13.97
2019-02-05T06:59:13.431Z,13.13
2019-02-05T07:01:45.662Z,10.27
2019-02-05T07:04:17.787Z,11.20
2019-02-05T07:06:50.219Z,11.33
2019-02-05T07:09:22.356Z,11.97
2019-02-05T07:11:54.513Z,12.17
2019-02-05T07:14:26.669Z,12.93
2019-02-05T07:16:59.216Z,10.70
2019-02-05T07:19:31.828Z,12.50
2019-02-05T07:22:04.070Z,11.37
2019-02-05T07:24:36.344Z,13.90
2019-02-05T07:27:08.569Z,13.03
2019-02-05T07:29:40.780Z,13.10
2019-02-05T07:32:13.427Z,12.43
2019-02-05T07:34:45.636Z,12.20
2019-02-05T07:37:17.801Z,11.80
2019-02-05T07:39:49.952Z,12.50
2019-02-05T07:42:22.108Z,12.53
2019-02-05T07:44:54.350Z,13.33
2019-02-05T07:47:26.503Z,11.17
2019-02-05T07:49:58.744Z,11.77
2019-02-05T07:52:30.895Z,11.53
2019-02-05T07:55:03.088Z,12.53
2019-02-05T07:57:35.247Z,12.40
2019-02-05T08:00:13.918Z,11.50
2019-02-05T08:02:46.255Z,13.40
2019-02-05T08:05:21.950Z,11.23
2019-02-05T08:07:54.137Z,12.83
2019-02-05T08:10:26.441Z,14.07
2019-02-05T08:12:58.830Z,13.00
2019-02-05T08:15:33.363Z,12.97
2019-02-05T08:18:05.985Z,14.23
2019-02-05T08:20:38.118Z,12.93
2019-02-05T08:23:10.338Z,13.77
2019-02-05T08:25:42.467Z,12.50
2019-02-05T08:28:14.628Z,13.87
2019-02-05T08:30:48.849Z,13.27
2019-02-05T08:33:21.079Z,12.77
2019-02-05T08:35:53.218Z,13.23
2019-02-05T08:38:25.474Z,13.77
2019-02-05T08:40:57.611Z,14.03
2019-02-05T08:43:29.933Z,14.57
2019-02-05T08:46:02.083Z,13.93
2019-02-05T08:48:34.406Z,14.60
2019-02-05T08:51:06.739Z,13.43
2019-02-05T08:53:40.148Z,14.63
2019-02-05T08:56:12.433Z,15.60
2019-02-05T08:58:46.409Z,14.60
2019-02-05T09:01:18.629Z,13.03
2019-02-05T09:03:50.859Z,15.33
2019-02-05T09:06:23.168Z,15.17
2019-02-05T09:08:55.416Z,15.17
2019-02-05T09:11:27.564Z,14.90
2019-02-05T09:14:10.350Z,15.40
2019-02-05T09:16:33.645Z,16.70
2019-02-05T09:19:06.036Z,15.33
2019-02-05T09:21:38.252Z,17.40
2019-02-05T09:24:10.565Z,17.00
2019-02-05T09:26:42.701Z,16.17
2019-02-05T09:29:14.865Z,17.10
2019-02-05T09:31:47.288Z,18.07
2019-02-05T09:34:19.750Z,17.10
2019-02-05T09:36:51.889Z,16.90
2019-02-05T09:39:24.335Z,16.23
2019-02-05T09:41:56.545Z,16.20
2019-02-05T09:44:31.483Z,14.20
2019-02-05T09:47:03.121Z,14.57
2019-02-05T09:49:35.381Z,14.93
2019-02-05T09:52:07.515Z,14.23
2019-02-05T09:54:39.830Z,14.70
2019-02-05T09:57:12.457Z,12.87
2019-02-05T09:59:45.715Z,11.83
2019-02-05T10:02:18.061Z,13.80
2019-02-05T10:04:50.176Z,12.33
2019-02-05T10:07:22.307Z,13.20
2019-02-05T10:09:54.854Z,12.83
2019-02-05T10:12:26.995Z,13.73
2019-02-05T10:15:00.120Z,13.47
2019-02-05T10:17:32.452Z,14.80
2019-02-05T10:20:05.954Z,16.03
2019-02-05T10:22:38.161Z,15.43
2019-02-05T10:25:11.165Z,15.80
2019-02-05T10:27:43.374Z,15.63
2019-02-05T10:30:37.678Z,13.70
2019-02-05T10:33:10.646Z,14.50
2019-02-05T10:35:43.107Z,15.90
2019-02-05T10:38:15.251Z,19.53
2019-02-05T10:40:47.491Z,17.37
2019-02-05T10:43:19.640Z,12.13
2019-02-05T10:45:52.184Z,18.07
2019-02-05T10:48:24.325Z,15.97
2019-02-05T10:50:56.507Z,14.40
2019-02-05T10:53:28.657Z,13.03
2019-02-05T10:56:01.174Z,13.20
2019-02-05T10:58:33.711Z,13.17
2019-02-05T11:01:06.020Z,12.93
2019-02-05T11:03:38.234Z,13.17
2019-02-05T11:06:10.477Z,23.93
2019-02-05T11:08:42.613Z,18.80
2019-02-05T11:11:15.158Z,13.60
2019-02-05T11:13:47.490Z,12.40
2019-02-05T11:16:19.808Z,14.50
2019-02-05T11:18:52.063Z,15.23
2019-02-05T11:21:24.340Z,12.50
2019-02-05T11:23:56.493Z,11.90
2019-02-05T11:26:28.668Z,12.83
2019-02-05T11:29:00.807Z,12.77
2019-02-05T11:31:33.088Z,12.43
2019-02-05T11:34:05.373Z,12.97
2019-02-05T11:36:37.629Z,11.60
2019-02-05T11:39:16.301Z,12.90
2019-02-05T11:41:48.464Z,11.63
2019-02-05T11:44:20.779Z,11.50
2019-02-05T11:46:52.956Z,11.60
2019-02-05T11:49:25.553Z,10.93
2019-02-05T11:51:57.853Z,10.70
2019-02-05T11:54:30.002Z,12.70
2019-02-05T11:57:02.280Z,13.77
2019-02-05T11:59:34.529Z,11.40
2019-02-05T12:02:06.710Z,13.30
2019-02-05T12:04:39.056Z,13.63
2019-02-05T12:07:11.242Z,12.53
2019-02-05T12:09:43.537Z,12.43
2019-02-05T12:12:15.822Z,11.30
2019-02-05T12:14:50.283Z,8.93
2019-02-05T12:17:22.092Z,9.37
2019-02-05T12:19:55.736Z,9.87
2019-02-05T12:22:28.176Z,10.93
2019-02-05T12:25:00.380Z,11.30
2019-02-05T12:27:33.773Z,10.73
2019-02-05T12:30:19.697Z,10.77
2019-02-05T12:32:53.944Z,10.43
2019-02-05T12:35:26.435Z,9.47
2019-02-05T12:37:58.719Z,12.03
2019-02-05T12:40:30.867Z,10.50
2019-02-05T12:43:03.074Z,9.20
2019-02-05T12:45:35.471Z,10.13
2019-02-05T12:48:07.849Z,10.10
2019-02-05T12:50:40.211Z,11.40
2019-02-05T12:53:13.621Z,11.13
2019-02-05T12:55:45.769Z,13.07
2019-02-05T12:58:18.073Z,10.63
2019-02-05T13:00:58.296Z,11.47
2019-02-05T13:03:27.432Z,11.60
2019-02-05T13:05:59.581Z,12.40
2019-02-05T13:08:31.815Z,11.70
2019-02-05T13:11:03.974Z,10.77
2019-02-05T13:13:36.229Z,11.23
2019-02-05T13:16:08.664Z,10.47
2019-02-05T13:18:40.897Z,8.43
2019-02-05T13:21:13.233Z,8.90
2019-02-05T13:23:47.102Z,9.27
2019-02-05T13:26:19.396Z,9.37
2019-02-05T13:28:51.636Z,8.73
2019-02-05T13:31:24.179Z,9.43
2019-02-05T13:33:56.588Z,10.27
2019-02-05T13:36:29.056Z,8.90
2019-02-05T13:39:01.766Z,7.87
2019-02-05T13:41:35.806Z,8.33
2019-02-05T13:44:08.475Z,8.13
2019-02-05T13:46:40.795Z,9.20
2019-02-05T13:49:13.422Z,8.60
2019-02-05T13:51:46.120Z,9.40
2019-02-05T13:54:21.325Z,9.90
2019-02-05T13:56:53.643Z,10.00
2019-02-05T13:59:26.172Z,9.17
2019-02-05T14:01:58.693Z,9.83
2019-02-05T14:04:33.618Z,8.97
2019-02-05T14:07:06.162Z,8.67
2019-02-05T14:09:39.161Z,8.70
2019-02-05T14:12:11.607Z,8.97
2019-02-05T14:14:45.303Z,9.03
2019-02-05T14:17:17.610Z,9.80
2019-02-05T14:19:50.087Z,9.33
2019-02-05T14:22:22.505Z,9.20
2019-02-05T14:24:56.657Z,11.60
2019-02-05T14:27:29.003Z,10.53
2019-02-05T14:30:01.285Z,10.50
2019-02-05T14:32:33.689Z,8.97
2019-02-05T14:35:07.803Z,9.77
2019-02-05T14:37:40.525Z,9.87
2019-02-05T14:40:15.897Z,9.37
2019-02-05T14:42:48.288Z,9.60
2019-02-05T14:45:20.638Z,10.57
2019-02-05T14:47:52.957Z,13.93
2019-02-05T14:50:28.469Z,14.23
2019-02-05T14:53:00.905Z,15.37
2019-02-05T14:55:33.415Z,11.13
2019-02-05T14:58:08.416Z,10.90
2019-02-05T15:00:42.194Z,11.20
2019-02-05T15:03:16.067Z,11.53
2019-02-05T15:05:49.262Z,10.20
2019-02-05T15:08:22.996Z,10.07
2019-02-05T15:10:55.228Z,11.43
2019-02-05T15:13:27.421Z,11.60
2019-02-05T15:15:59.618Z,11.73
2019-02-05T15:18:32.861Z,11.50
2019-02-05T15:21:05.586Z,11.70
2019-02-05T15:23:38.208Z,11.13
2019-02-05T15:26:10.469Z,11.27
2019-02-05T15:28:42.616Z,11.80
2019-02-05T15:31:14.872Z,10.97
2019-02-05T15:33:51.493Z,12.33
2019-02-05T15:36:44.344Z,10.90
2019-02-05T15:39:16.594Z,10.43
2019-02-05T15:41:48.766Z,10.53
2019-02-05T15:44:20.835Z,9.43
2019-02-05T15:46:53.539Z,11.00
2019-02-05T15:49:27.040Z,10.33
2019-02-05T15:51:59.505Z,9.53
2019-02-05T15:54:31.647Z,10.53
2019-02-05T15:57:03.810Z,8.83
2019-02-05T15:59:36.026Z,10.43
2019-02-05T16:02:08.229Z,10.87
2019-02-05T16:04:40.406Z,11.40
2019-02-05T16:07:13.177Z,12.40
2019-02-05T16:09:45.471Z,11.37
2019-02-05T16:12:17.648Z,11.37
2019-02-05T16:14:49.795Z,10.67
2019-02-05T16:17:22.037Z,11.67
2019-02-05T16:19:54.637Z,10.20
2019-02-05T16:22:26.912Z,10.23
2019-02-05T16:24:59.133Z,11.60
2019-02-05T16:27:31.326Z,11.20
2019-02-05T16:30:03.718Z,10.40
2019-02-05T16:32:36.334Z,10.20
2019-02-05T16:35:08.943Z,10.27
2019-02-05T16:37:41.225Z,9.70
2019-02-05T16:40:17.792Z,17.03
2019-02-05T16:42:49.963Z,20.77
2019-02-05T16:45:25.143Z,20.73
2019-02-05T16:47:57.322Z,16.10
2019-02-05T16:50:33.479Z,16.97
2019-02-05T16:53:07.295Z,17.40
2019-02-05T16:55:39.446Z,18.07
2019-02-05T16:58:11.610Z,17.27
2019-02-05T17:00:43.912Z,13.17
2019-02-05T17:03:16.153Z,13.67
2019-02-05T17:05:48.374Z,12.07
2019-02-05T17:08:20.547Z,10.87
2019-02-05T17:10:52.624Z,10.33
2019-02-05T17:13:24.793Z,9.67
2019-02-05T17:15:56.936Z,11.00
2019-02-05T17:18:29.105Z,11.47
2019-02-05T17:21:01.325Z,10.90
2019-02-05T17:23:33.496Z,10.27
2019-02-05T17:26:05.768Z,10.50
2019-02-05T17:28:37.934Z,9.10
2019-02-05T17:31:10.358Z,11.47
2019-02-05T17:33:42.563Z,11.47
2019-02-05T17:36:14.707Z,9.20
2019-02-05T17:38:48.576Z,8.73
2019-02-05T17:41:20.775Z,9.60
2019-02-05T17:43:53.384Z,10.40
2019-02-05T17:46:25.611Z,10.10
2019-02-05T17:48:58.095Z,9.67
2019-02-05T17:51:30.280Z,9.47
2019-02-05T17:54:02.676Z,9.03
2019-02-05T17:56:35.018Z,10.03
2019-02-05T17:59:07.220Z,9.73
2019-02-05T18:01:39.416Z,12.67
2019-02-05T18:04:11.591Z,9.67
2019-02-05T18:06:43.941Z,9.10
2019-02-05T18:09:16.271Z,9.53
2019-02-05T18:11:48.851Z,8.30
2019-02-05T18:14:21.400Z,11.77
2019-02-05T18:16:53.601Z,10.03
2019-02-05T18:19:25.785Z,10.00
2019-02-05T18:21:57.993Z,9.77
2019-02-05T18:24:30.794Z,10.20
2019-02-05T18:27:03.611Z,9.37
2019-02-05T18:29:36.683Z,8.70
2019-02-05T18:32:10.389Z,8.87
2019-02-05T18:34:42.895Z,8.73
2019-02-05T18:37:15.142Z,8.87
2019-02-05T18:39:47.342Z,8.50
2019-02-05T18:42:19.584Z,9.40
2019-02-05T18:44:51.990Z,9.83
2019-02-05T18:47:24.336Z,10.07
2019-02-05T18:49:56.575Z,10.10
2019-02-05T18:52:28.754Z,9.60
2019-02-05T18:55:01.991Z,8.80
2019-02-05T18:57:34.218Z,8.87
2019-02-05T19:00:18.277Z,10.63
2019-02-05T19:02:50.543Z,9.57
2019-02-05T19:05:22.733Z,10.30
2019-02-05T19:07:54.886Z,10.00
2019-02-05T19:10:28.198Z,11.23
2019-02-05T19:13:00.863Z,10.77
2019-02-05T19:15:35.487Z,11.90
2019-02-05T19:18:09.732Z,12.93
2019-02-05T19:20:41.992Z,12.43
2019-02-05T19:23:14.337Z,12.33
2019-02-05T19:26:04.158Z,12.97
2019-02-05T19:28:37.979Z,13.80
2019-02-05T19:31:29.098Z,14.53
2019-02-05T19:34:01.239Z,15.70
2019-02-05T19:36:34.663Z,16.83
2019-02-05T19:39:08.687Z,15.53
2019-02-05T19:41:41.634Z,14.80
2019-02-05T19:44:14.097Z,13.90
2019-02-05T19:47:04.631Z,14.07
2019-02-05T19:49:45.983Z,12.60
2019-02-05T19:52:19.447Z,13.93
2019-02-05T19:54:51.662Z,16.43
2019-02-05T19:57:23.858Z,17.03
2019-02-05T19:59:56.384Z,16.67
2019-02-05T20:02:28.569Z,16.03
2019-02-05T20:05:00.886Z,16.60
2019-02-05T20:07:33.152Z,14.17
2019-02-05T20:10:06.483Z,13.37
2019-02-05T20:12:38.806Z,14.40
2019-02-05T20:15:10.993Z,14.67
2019-02-05T20:17:43.144Z,13.80
2019-02-05T20:20:15.782Z,14.53
2019-02-05T20:22:48.022Z,13.63
2019-02-05T20:25:20.187Z,13.90
2019-02-05T20:27:53.664Z,13.23
2019-02-05T20:30:25.889Z,13.87
2019-02-05T20:32:58.093Z,13.00
2019-02-05T20:35:30.238Z,14.53
2019-02-05T20:38:02.475Z,14.80
2019-02-05T20:40:34.773Z,15.37
2019-02-05T20:43:07.068Z,15.33
2019-02-05T20:45:39.538Z,14.17
2019-02-05T20:48:11.680Z,14.37
2019-02-05T20:50:44.139Z,14.20
2019-02-05T20:53:16.272Z,15.67
2019-02-05T20:55:48.513Z,14.93
2019-02-05T20:58:20.693Z,15.13
2019-02-05T21:00:52.849Z,15.63
2019-02-05T21:03:25.402Z,15.93
2019-02-05T21:05:57.563Z,14.47
2019-02-05T21:08:30.014Z,15.30
2019-02-05T21:11:20.098Z,15.07
2019-02-05T21:13:52.797Z,15.27
2019-02-05T21:16:25.222Z,14.50
2019-02-05T21:18:57.571Z,14.60
2019-02-05T21:21:29.907Z,18.20
2019-02-05T21:24:02.259Z,17.00
2019-02-05T21:26:34.603Z,16.40
2019-02-05T21:29:07.013Z,20.70
2019-02-05T21:31:39.429Z,17.73
2019-02-05T21:34:16.032Z,17.73
2019-02-05T21:36:45.635Z,16.37
2019-02-05T21:39:17.766Z,17.80
2019-02-05T21:41:49.948Z,19.93
2019-02-05T21:44:22.099Z,16.90
2019-02-05T21:46:54.289Z,17.03
2019-02-05T21:49:26.501Z,16.60
2019-02-05T21:51:58.836Z,14.93
2019-02-05T21:54:30.977Z,16.43
2019-02-05T21:57:03.226Z,15.53
2019-02-05T21:59:35.360Z,15.50
2019-02-05T22:02:07.723Z,18.67
2019-02-05T22:04:40.170Z,19.30
2019-02-05T22:07:12.329Z,16.33
2019-02-05T22:09:44.614Z,17.07
2019-02-05T22:12:16.737Z,17.27
2019-02-05T22:14:48.950Z,17.57
2019-02-05T22:17:21.395Z,20.67
2019-02-05T22:19:53.546Z,20.20
2019-02-05T22:22:25.878Z,18.73
2019-02-05T22:24:58.131Z,17.20
2019-02-05T22:27:30.282Z,16.67
2019-02-05T22:30:02.415Z,16.10
2019-02-05T22:32:36.215Z,17.23
2019-02-05T22:35:08.947Z,18.13
2019-02-05T22:37:41.107Z,15.37
2019-02-05T22:40:13.742Z,15.57
2019-02-05T22:42:46.004Z,16.90
2019-02-05T22:45:18.668Z,16.73
2019-02-05T22:47:50.830Z,16.93
2019-02-05T22:50:25.904Z,17.33
2019-02-05T22:52:58.867Z,18.30
2019-02-05T22:55:31.007Z,17.50
2019-02-05T22:58:03.278Z,19.83
2019-02-05T23:01:36.655Z,18.50
2019-02-05T23:04:51.270Z,17.20
2019-02-05T23:07:26.412Z,18.57
2019-02-05T23:11:19.059Z,19.60
2019-02-05T23:13:51.334Z,19.67
2019-02-05T23:16:23.542Z,17.67
2019-02-05T23:18:56.672Z,14.47
2019-02-05T23:21:28.815Z,16.40
2019-02-05T23:24:01.670Z,15.73
2019-02-05T23:26:34.970Z,15.00
2019-02-05T23:29:07.263Z,15.20
2019-02-05T23:31:39.503Z,14.30
2019-02-05T23:34:11.774Z,17.53
2019-02-05T23:36:44.348Z,16.13
2019-02-05T23:39:16.632Z,16.23
2019-02-05T23:41:49.037Z,16.70
2019-02-05T23:44:21.389Z,16.73
2019-02-05T23:46:53.630Z,16.23
2019-02-05T23:49:26.150Z,17.77
2019-02-05T23:51:58.529Z,17.23
2019-02-05T23:54:30.878Z,19.70
2019-02-05T23:57:03.204Z,17.40
2019-02-05T23:59:35.425Z,16.73
